sensor_id;sensor_type;location;lat;lon;timestamp;pressure;altitude;pressure_sealevel;temperature;humidity
47716;BME280;33476;50.984;3.538;2022-08-01T00:02:26;101796.50;;;23.36;67.15
47716;BME280;33476;50.984;3.538;2022-08-01T00:04:53;101796.75;;;23.33;67.29
47716;BME280;33476;50.984;3.538;2022-08-01T00:07:19;101801.69;;;23.38;67.20
47716;BME280;33476;50.984;3.538;2022-08-01T00:09:44;101800.00;;;23.37;67.37
47716;BME280;33476;50.984;3.538;2022-08-01T00:12:10;101798.19;;;23.37;67.18
47716;BME280;33476;50.984;3.538;2022-08-01T00:14:35;101801.97;;;23.35;67.42
47716;BME280;33476;50.984;3.538;2022-08-01T00:17:00;101793.00;;;23.36;67.24
47716;BME280;33476;50.984;3.538;2022-08-01T00:19:26;101798.03;;;23.39;67.18
47716;BME280;33476;50.984;3.538;2022-08-01T00:21:51;101790.88;;;23.39;67.30
47716;BME280;33476;50.984;3.538;2022-08-01T00:24:16;101798.88;;;23.39;67.48
47716;BME280;33476;50.984;3.538;2022-08-01T00:26:42;101789.47;;;23.35;67.42
47716;BME280;33476;50.984;3.538;2022-08-01T00:29:07;101797.72;;;23.32;67.48
47716;BME280;33476;50.984;3.538;2022-08-01T00:31:32;101795.91;;;23.33;67.72
47716;BME280;33476;50.984;3.538;2022-08-01T00:33:58;101800.53;;;23.31;67.79
47716;BME280;33476;50.984;3.538;2022-08-01T00:36:23;101794.63;;;23.27;67.93
47716;BME280;33476;50.984;3.538;2022-08-01T00:38:48;101796.84;;;23.22;68.00
47716;BME280;33476;50.984;3.538;2022-08-01T00:41:14;101798.78;;;23.20;68.09
47716;BME280;33476;50.984;3.538;2022-08-01T00:43:39;101799.16;;;23.15;68.29
47716;BME280;33476;50.984;3.538;2022-08-01T00:46:04;101791.91;;;23.17;68.25
47716;BME280;33476;50.984;3.538;2022-08-01T00:48:30;101789.13;;;23.19;68.68
47716;BME280;33476;50.984;3.538;2022-08-01T00:50:56;101790.34;;;23.15;68.80
47716;BME280;33476;50.984;3.538;2022-08-01T00:53:21;101791.19;;;23.15;68.52
47716;BME280;33476;50.984;3.538;2022-08-01T00:55:47;101790.34;;;23.15;68.79
47716;BME280;33476;50.984;3.538;2022-08-01T00:58:13;101789.34;;;23.16;68.82
47716;BME280;33476;50.984;3.538;2022-08-01T01:00:39;101789.34;;;23.16;68.92
47716;BME280;33476;50.984;3.538;2022-08-01T01:03:04;101788.78;;;23.12;69.18
47716;BME280;33476;50.984;3.538;2022-08-01T01:05:35;101788.22;;;23.09;69.17
47716;BME280;33476;50.984;3.538;2022-08-01T01:08:19;101781.06;;;23.09;69.18
47716;BME280;33476;50.984;3.538;2022-08-01T01:11:03;101781.06;;;23.09;69.04
47716;BME280;33476;50.984;3.538;2022-08-01T01:13:43;101776.16;;;23.14;69.13
47716;BME280;33476;50.984;3.538;2022-08-01T01:16:17;101771.53;;;23.16;69.18
47716;BME280;33476;50.984;3.538;2022-08-01T01:18:47;101775.19;;;23.15;68.83
47716;BME280;33476;50.984;3.538;2022-08-01T01:26:26;101775.50;;;23.22;68.38
47716;BME280;33476;50.984;3.538;2022-08-01T01:29:00;101776.53;;;23.31;67.45
47716;BME280;33476;50.984;3.538;2022-08-01T01:31:27;101772.19;;;23.30;68.14
47716;BME280;33476;50.984;3.538;2022-08-01T01:33:55;101776.34;;;23.22;68.43
47716;BME280;33476;50.984;3.538;2022-08-01T01:36:25;101779.53;;;23.16;68.99
47716;BME280;33476;50.984;3.538;2022-08-01T01:38:52;101781.25;;;23.17;69.18
47716;BME280;33476;50.984;3.538;2022-08-01T01:41:19;101779.44;;;23.18;69.26
47716;BME280;33476;50.984;3.538;2022-08-01T01:43:46;101781.50;;;23.14;69.50
47716;BME280;33476;50.984;3.538;2022-08-01T01:46:17;101772.53;;;23.15;69.43
47716;BME280;33476;50.984;3.538;2022-08-01T01:48:46;101774.81;;;23.20;69.43
47716;BME280;33476;50.984;3.538;2022-08-01T01:51:13;101770.19;;;23.22;69.37
47716;BME280;33476;50.984;3.538;2022-08-01T01:53:41;101776.22;;;23.24;69.55
47716;BME280;33476;50.984;3.538;2022-08-01T01:56:08;101774.16;;;23.27;69.67
47716;BME280;33476;50.984;3.538;2022-08-01T01:58:35;101769.38;;;23.31;69.37
47716;BME280;33476;50.984;3.538;2022-08-01T02:01:04;101779.19;;;23.31;69.11
47716;BME280;33476;50.984;3.538;2022-08-01T02:03:32;101778.22;;;23.32;68.93
47716;BME280;33476;50.984;3.538;2022-08-01T02:06:02;101779.06;;;23.32;68.69
47716;BME280;33476;50.984;3.538;2022-08-01T02:08:29;101774.72;;;23.31;68.61
47716;BME280;33476;50.984;3.538;2022-08-01T02:10:56;101779.06;;;23.32;68.59
47716;BME280;33476;50.984;3.538;2022-08-01T02:13:41;101778.06;;;23.33;68.03
47716;BME280;33476;50.984;3.538;2022-08-01T02:16:08;101779.19;;;23.31;68.11
47716;BME280;33476;50.984;3.538;2022-08-01T02:18:36;101775.97;;;23.27;67.91
47716;BME280;33476;50.984;3.538;2022-08-01T02:21:05;101773.53;;;23.24;67.93
47716;BME280;33476;50.984;3.538;2022-08-01T02:23:36;101778.19;;;23.22;67.92
47716;BME280;33476;50.984;3.538;2022-08-01T02:26:07;101788.00;;;23.21;67.77
47716;BME280;33476;50.984;3.538;2022-08-01T02:28:41;101786.88;;;23.24;67.57
47716;BME280;33476;50.984;3.538;2022-08-01T02:31:11;101783.13;;;23.26;67.46
47716;BME280;33476;50.984;3.538;2022-08-01T02:33:43;101780.69;;;23.23;67.21
47716;BME280;33476;50.984;3.538;2022-08-01T02:36:11;101782.66;;;23.21;67.06
47716;BME280;33476;50.984;3.538;2022-08-01T02:38:41;101782.81;;;23.20;67.21
47716;BME280;33476;50.984;3.538;2022-08-01T02:41:10;101780.97;;;23.20;67.17
47716;BME280;33476;50.984;3.538;2022-08-01T02:43:40;101780.97;;;23.20;66.92
47716;BME280;33476;50.984;3.538;2022-08-01T02:46:21;101785.47;;;23.20;66.73
47716;BME280;33476;50.984;3.538;2022-08-01T02:48:50;101780.13;;;23.20;66.78
47716;BME280;33476;50.984;3.538;2022-08-01T02:51:19;101778.44;;;23.19;66.67
47716;BME280;33476;50.984;3.538;2022-08-01T02:53:47;101781.25;;;23.17;66.78
47716;BME280;33476;50.984;3.538;2022-08-01T02:56:15;101780.53;;;23.15;66.80
47716;BME280;33476;50.984;3.538;2022-08-01T02:58:42;101779.69;;;23.15;66.67
47716;BME280;33476;50.984;3.538;2022-08-01T03:01:10;101776.16;;;23.14;66.70
47716;BME280;33476;50.984;3.538;2022-08-01T03:03:36;101778.69;;;23.16;66.78
47716;BME280;33476;50.984;3.538;2022-08-01T03:06:02;101775.06;;;23.17;66.70
47716;BME280;33476;50.984;3.538;2022-08-01T03:08:30;101777.84;;;23.15;66.60
47716;BME280;33476;50.984;3.538;2022-08-01T03:10:57;101775.94;;;23.17;66.40
47716;BME280;33476;50.984;3.538;2022-08-01T03:13:25;101780.13;;;23.20;66.41
47716;BME280;33476;50.984;3.538;2022-08-01T03:15:52;101779.44;;;23.18;66.23
47716;BME280;33476;50.984;3.538;2022-08-01T03:18:19;101772.28;;;23.18;66.33
47716;BME280;33476;50.984;3.538;2022-08-01T03:20:47;101785.59;;;23.18;66.32
47716;BME280;33476;50.984;3.538;2022-08-01T03:23:15;101788.38;;;23.17;66.24
47716;BME280;33476;50.984;3.538;2022-08-01T03:25:41;101790.34;;;23.15;66.53
47716;BME280;33476;50.984;3.538;2022-08-01T03:28:10;101790.19;;;23.16;66.38
47716;BME280;33476;50.984;3.538;2022-08-01T03:30:37;101780.53;;;23.15;66.05
47716;BME280;33476;50.984;3.538;2022-08-01T03:33:03;101779.53;;;23.16;66.02
47716;BME280;33476;50.984;3.538;2022-08-01T03:35:34;101778.69;;;23.16;66.00
47716;BME280;33476;50.984;3.538;2022-08-01T03:38:02;101786.31;;;23.20;65.85
47716;BME280;33476;50.984;3.538;2022-08-01T03:40:35;101791.91;;;23.17;65.64
47716;BME280;33476;50.984;3.538;2022-08-01T03:43:07;101793.72;;;23.17;65.68
47716;BME280;33476;50.984;3.538;2022-08-01T03:45:39;101797.25;;;23.17;65.74
47716;BME280;33476;50.984;3.538;2022-08-01T03:48:09;101791.22;;;23.25;65.30
47716;BME280;33476;50.984;3.538;2022-08-01T03:50:36;101789.16;;;23.29;65.00
47716;BME280;33476;50.984;3.538;2022-08-01T03:53:06;101790.38;;;23.24;65.23
47716;BME280;33476;50.984;3.538;2022-08-01T03:55:32;101797.69;;;23.22;65.48
47716;BME280;33476;50.984;3.538;2022-08-01T03:57:59;101796.97;;;23.20;65.46
47716;BME280;33476;50.984;3.538;2022-08-01T04:00:26;101799.91;;;23.17;65.80
47716;BME280;33476;50.984;3.538;2022-08-01T04:02:52;101799.03;;;23.17;65.38
47716;BME280;33476;50.984;3.538;2022-08-01T04:05:18;101799.16;;;23.15;65.66
47716;BME280;33476;50.984;3.538;2022-08-01T04:07:48;101791.44;;;23.12;65.73
47716;BME280;33476;50.984;3.538;2022-08-01T04:10:21;101791.31;;;23.14;65.73
47716;BME280;33476;50.984;3.538;2022-08-01T04:12:46;101796.66;;;23.14;65.77
47716;BME280;33476;50.984;3.538;2022-08-01T04:15:12;101790.75;;;23.10;65.73
47716;BME280;33476;50.984;3.538;2022-08-01T04:17:37;101795.34;;;23.08;66.12
47716;BME280;33476;50.984;3.538;2022-08-01T04:20:03;101781.06;;;23.09;65.90
47716;BME280;33476;50.984;3.538;2022-08-01T04:22:29;101790.16;;;23.07;65.86
47716;BME280;33476;50.984;3.538;2022-08-01T04:24:57;101790.41;;;23.04;66.12
47716;BME280;33476;50.984;3.538;2022-08-01T04:27:29;101788.88;;;23.01;66.04
47716;BME280;33476;50.984;3.538;2022-08-01T04:29:58;101786.06;;;23.03;66.15
47716;BME280;33476;50.984;3.538;2022-08-01T04:32:25;101793.94;;;23.04;66.01
47716;BME280;33476;50.984;3.538;2022-08-01T04:34:54;101790.69;;;23.01;65.97
47716;BME280;33476;50.984;3.538;2022-08-01T04:37:23;101788.13;;;22.99;65.75
47716;BME280;33476;50.984;3.538;2022-08-01T04:39:52;101794.56;;;22.96;65.55
47716;BME280;33476;50.984;3.538;2022-08-01T04:42:18;101794.00;;;22.93;65.42
47716;BME280;33476;50.984;3.538;2022-08-01T04:44:45;101798.72;;;22.89;65.60
47716;BME280;33476;50.984;3.538;2022-08-01T04:47:11;101798.16;;;22.86;65.83
47716;BME280;33476;50.984;3.538;2022-08-01T04:49:37;101805.38;;;22.84;66.07
47716;BME280;33476;50.984;3.538;2022-08-01T04:52:03;101804.66;;;22.82;65.98
47716;BME280;33476;50.984;3.538;2022-08-01T04:54:30;101806.75;;;22.78;65.84
47716;BME280;33476;50.984;3.538;2022-08-01T04:56:59;101814.03;;;22.76;65.95
47716;BME280;33476;50.984;3.538;2022-08-01T04:59:43;101808.50;;;22.68;66.35
47716;BME280;33476;50.984;3.538;2022-08-01T05:02:17;101814.28;;;22.73;66.15
47716;BME280;33476;50.984;3.538;2022-08-01T05:04:44;101814.75;;;22.78;65.91
47716;BME280;33476;50.984;3.538;2022-08-01T05:07:11;101819.22;;;22.78;66.05
47716;BME280;33476;50.984;3.538;2022-08-01T05:09:38;101820.22;;;22.77;66.10
47716;BME280;33476;50.984;3.538;2022-08-01T05:12:05;101823.72;;;22.77;66.30
47716;BME280;33476;50.984;3.538;2022-08-01T05:14:31;101826.81;;;22.82;66.16
47716;BME280;33476;50.984;3.538;2022-08-01T05:17:01;101829.28;;;22.85;65.93
47716;BME280;33476;50.984;3.538;2022-08-01T05:19:33;101828.16;;;22.88;65.93
47716;BME280;33476;50.984;3.538;2022-08-01T05:21:59;101822.56;;;22.91;65.67
47716;BME280;33476;50.984;3.538;2022-08-01T05:24:29;101818.94;;;22.92;65.76
47716;BME280;33476;50.984;3.538;2022-08-01T05:26:55;101818.94;;;22.92;65.86
47716;BME280;33476;50.984;3.538;2022-08-01T05:29:21;101827.06;;;22.90;66.07
47716;BME280;33476;50.984;3.538;2022-08-01T05:31:46;101819.19;;;22.89;66.04
47716;BME280;33476;50.984;3.538;2022-08-01T05:34:11;101817.97;;;22.93;65.90
47716;BME280;33476;50.984;3.538;2022-08-01T05:36:37;101817.97;;;22.93;66.04
47716;BME280;33476;50.984;3.538;2022-08-01T05:39:03;101818.81;;;22.93;65.98
47716;BME280;33476;50.984;3.538;2022-08-01T05:41:29;101819.66;;;22.94;65.68
47716;BME280;33476;50.984;3.538;2022-08-01T05:43:54;101819.25;;;22.98;65.78
47716;BME280;33476;50.984;3.538;2022-08-01T05:46:20;101828.00;;;23.01;65.40
47716;BME280;33476;50.984;3.538;2022-08-01T05:48:45;101834.75;;;23.05;65.11
47716;BME280;33476;50.984;3.538;2022-08-01T05:51:10;101829.13;;;23.08;65.20
47716;BME280;33476;50.984;3.538;2022-08-01T05:53:36;101833.13;;;23.13;65.19
47716;BME280;33476;50.984;3.538;2022-08-01T05:56:01;101836.34;;;23.17;65.04
47716;BME280;33476;50.984;3.538;2022-08-01T05:58:27;101836.94;;;23.20;64.90
47716;BME280;33476;50.984;3.538;2022-08-01T06:00:52;101842.16;;;23.22;64.99
47716;BME280;33476;50.984;3.538;2022-08-01T06:03:18;101846.63;;;23.21;64.86
47716;BME280;33476;50.984;3.538;2022-08-01T06:05:44;101852.81;;;23.22;65.08
47716;BME280;33476;50.984;3.538;2022-08-01T06:08:09;101855.94;;;23.27;64.77
47716;BME280;33476;50.984;3.538;2022-08-01T06:10:34;101859.16;;;23.31;64.64
47716;BME280;33476;50.984;3.538;2022-08-01T06:13:00;101861.59;;;23.34;64.23
47716;BME280;33476;50.984;3.538;2022-08-01T06:15:28;101867.78;;;23.34;64.08
47716;BME280;33476;50.984;3.538;2022-08-01T06:17:54;101865.94;;;23.35;64.18
47716;BME280;33476;50.984;3.538;2022-08-01T06:20:19;101859.50;;;23.37;64.19
47716;BME280;33476;50.984;3.538;2022-08-01T06:22:45;101850.66;;;23.37;64.33
47716;BME280;33476;50.984;3.538;2022-08-01T06:25:10;101850.66;;;23.37;64.23
47716;BME280;33476;50.984;3.538;2022-08-01T06:27:36;101853.31;;;23.37;64.25
47716;BME280;33476;50.984;3.538;2022-08-01T06:30:02;101859.22;;;23.40;64.13
47716;BME280;33476;50.984;3.538;2022-08-01T06:32:27;101856.31;;;23.43;64.02
47716;BME280;33476;50.984;3.538;2022-08-01T06:34:54;101858.44;;;23.49;64.15
47716;BME280;33476;50.984;3.538;2022-08-01T06:37:20;101864.75;;;23.48;64.07
47716;BME280;33476;50.984;3.538;2022-08-01T06:39:46;101867.41;;;23.48;64.16
47716;BME280;33476;50.984;3.538;2022-08-01T06:42:11;101860.25;;;23.49;64.10
47716;BME280;33476;50.984;3.538;2022-08-01T06:44:37;101865.72;;;23.47;63.99
47716;BME280;33476;50.984;3.538;2022-08-01T06:47:02;101875.88;;;23.53;63.65
47716;BME280;33476;50.984;3.538;2022-08-01T06:49:28;101877.41;;;23.56;63.38
47716;BME280;33476;50.984;3.538;2022-08-01T06:51:53;101879.84;;;23.59;63.01
47716;BME280;33476;50.984;3.538;2022-08-01T06:54:18;101874.41;;;23.61;62.82
47716;BME280;33476;50.984;3.538;2022-08-01T06:56:44;101872.78;;;23.58;62.93
47716;BME280;33476;50.984;3.538;2022-08-01T06:59:09;101872.72;;;23.60;62.90
47716;BME280;33476;50.984;3.538;2022-08-01T07:01:35;101868.09;;;23.62;62.81
47716;BME280;33476;50.984;3.538;2022-08-01T07:04:01;101878.63;;;23.63;62.59
47716;BME280;33476;50.984;3.538;2022-08-01T07:06:27;101871.31;;;23.65;62.59
47716;BME280;33476;50.984;3.538;2022-08-01T07:08:53;101872.91;;;23.68;62.01
47716;BME280;33476;50.984;3.538;2022-08-01T07:11:19;101876.97;;;23.72;61.69
47716;BME280;33476;50.984;3.538;2022-08-01T07:13:45;101876.59;;;23.76;61.33
47716;BME280;33476;50.984;3.538;2022-08-01T07:16:14;101875.47;;;23.79;61.07
47716;BME280;33476;50.984;3.538;2022-08-01T07:18:40;101872.41;;;23.84;60.87
47716;BME280;33476;50.984;3.538;2022-08-01T07:21:06;101882.38;;;23.91;60.76
47716;BME280;33476;50.984;3.538;2022-08-01T07:23:32;101877.91;;;23.92;59.67
47716;BME280;33476;50.984;3.538;2022-08-01T07:25:57;101875.94;;;23.94;60.05
47716;BME280;33476;50.984;3.538;2022-08-01T07:28:24;101877.09;;;24.01;59.39
47716;BME280;33476;50.984;3.538;2022-08-01T07:30:49;101881.03;;;24.06;59.25
47716;BME280;33476;50.984;3.538;2022-08-01T07:33:14;101880.50;;;24.13;58.70
47716;BME280;33476;50.984;3.538;2022-08-01T07:35:40;101885.69;;;24.14;58.82
47716;BME280;33476;50.984;3.538;2022-08-01T07:38:06;101881.66;;;24.20;58.32
47716;BME280;33476;50.984;3.538;2022-08-01T07:40:32;101877.00;;;24.22;58.05
47716;BME280;33476;50.984;3.538;2022-08-01T07:42:57;101882.94;;;24.25;58.07
47716;BME280;33476;50.984;3.538;2022-08-01T07:45:23;101879.84;;;24.30;57.32
47716;BME280;33476;50.984;3.538;2022-08-01T07:47:48;101883.97;;;24.34;57.34
47716;BME280;33476;50.984;3.538;2022-08-01T07:50:15;101879.00;;;24.29;56.98
47716;BME280;33476;50.984;3.538;2022-08-01T07:52:41;101880.38;;;24.24;57.11
47716;BME280;33476;50.984;3.538;2022-08-01T07:55:08;101878.97;;;24.20;57.46
47716;BME280;33476;50.984;3.538;2022-08-01T07:57:33;101878.97;;;24.20;57.37
47716;BME280;33476;50.984;3.538;2022-08-01T07:59:59;101888.41;;;24.24;57.15
47716;BME280;33476;50.984;3.538;2022-08-01T08:02:25;101882.94;;;24.25;56.74
47716;BME280;33476;50.984;3.538;2022-08-01T08:04:50;101887.16;;;24.28;56.50
47716;BME280;33476;50.984;3.538;2022-08-01T08:07:16;101893.25;;;24.40;56.67
47716;BME280;33476;50.984;3.538;2022-08-01T08:09:41;101897.75;;;24.49;56.02
47716;BME280;33476;50.984;3.538;2022-08-01T08:12:06;101896.81;;;24.59;55.76
47716;BME280;33476;50.984;3.538;2022-08-01T08:14:32;101899.34;;;24.61;55.85
47716;BME280;33476;50.984;3.538;2022-08-01T08:16:57;101902.84;;;24.61;56.11
47716;BME280;33476;50.984;3.538;2022-08-01T08:19:22;101902.72;;;24.63;55.29
47716;BME280;33476;50.984;3.538;2022-08-01T08:21:48;101905.22;;;24.64;54.96
47716;BME280;33476;50.984;3.538;2022-08-01T08:24:13;101904.00;;;24.69;54.87
47716;BME280;33476;50.984;3.538;2022-08-01T08:26:44;101901.03;;;24.72;54.53
47716;BME280;33476;50.984;3.538;2022-08-01T08:29:10;101907.94;;;24.74;54.34
47716;BME280;33476;50.984;3.538;2022-08-01T08:31:35;101907.78;;;24.76;54.43
47716;BME280;33476;50.984;3.538;2022-08-01T08:34:00;101899.78;;;24.76;54.00
47716;BME280;33476;50.984;3.538;2022-08-01T08:36:26;101894.28;;;24.68;53.46
47716;BME280;33476;50.984;3.538;2022-08-01T08:38:52;101898.94;;;24.75;54.33
47716;BME280;33476;50.984;3.538;2022-08-01T08:41:17;101898.78;;;24.86;53.47
47716;BME280;33476;50.984;3.538;2022-08-01T08:43:43;101896.13;;;24.96;52.99
47716;BME280;33476;50.984;3.538;2022-08-01T08:46:08;101905.00;;;25.06;52.60
47716;BME280;33476;50.984;3.538;2022-08-01T08:48:37;101897.13;;;25.14;52.86
47716;BME280;33476;50.984;3.538;2022-08-01T08:51:04;101905.16;;;25.24;52.15
47716;BME280;33476;50.984;3.538;2022-08-01T08:53:31;101905.41;;;25.31;52.03
47716;BME280;33476;50.984;3.538;2022-08-01T08:55:58;101914.28;;;25.41;51.81
47716;BME280;33476;50.984;3.538;2022-08-01T08:58:25;101913.97;;;25.44;51.89
47716;BME280;33476;50.984;3.538;2022-08-01T09:00:52;101902.28;;;25.45;51.77
47716;BME280;33476;50.984;3.538;2022-08-01T09:03:18;101910.59;;;25.52;51.33
47716;BME280;33476;50.984;3.538;2022-08-01T09:05:43;101906.19;;;25.60;51.56
47716;BME280;33476;50.984;3.538;2022-08-01T09:08:09;101904.78;;;25.56;51.26
47716;BME280;33476;50.984;3.538;2022-08-01T09:10:34;101909.03;;;25.59;51.23
47716;BME280;33476;50.984;3.538;2022-08-01T09:13:08;101911.97;;;25.65;51.16
47716;BME280;33476;50.984;3.538;2022-08-01T09:15:49;101913.34;;;25.69;51.04
47716;BME280;33476;50.984;3.538;2022-08-01T09:18:35;101907.88;;;25.71;51.37
47716;BME280;33476;50.984;3.538;2022-08-01T09:23:50;101907.84;;;25.81;50.52
47716;BME280;33476;50.984;3.538;2022-08-01T09:26:19;101906.22;;;25.97;50.20
47716;BME280;33476;50.984;3.538;2022-08-01T09:28:46;101908.31;;;26.03;50.14
47716;BME280;33476;50.984;3.538;2022-08-01T09:31:15;101910.31;;;26.01;50.24
47716;BME280;33476;50.984;3.538;2022-08-01T09:36:14;101923.38;;;26.04;49.34
47716;BME280;33476;50.984;3.538;2022-08-01T09:38:39;101926.91;;;26.05;49.79
47716;BME280;33476;50.984;3.538;2022-08-01T09:41:04;101931.81;;;26.10;49.21
47716;BME280;33476;50.984;3.538;2022-08-01T09:43:32;101932.50;;;26.12;48.74
47716;BME280;33476;50.984;3.538;2022-08-01T09:45:59;101935.19;;;26.12;48.80
47716;BME280;33476;50.984;3.538;2022-08-01T09:48:29;101931.66;;;26.11;48.22
47716;BME280;33476;50.984;3.538;2022-08-01T09:50:54;101930.94;;;26.19;48.54
47716;BME280;33476;50.984;3.538;2022-08-01T09:53:20;101934.16;;;26.22;48.36
47716;BME280;33476;50.984;3.538;2022-08-01T09:55:46;101936.81;;;26.32;48.69
47716;BME280;33476;50.984;3.538;2022-08-01T09:58:11;101925.25;;;26.31;48.41
47716;BME280;33476;50.984;3.538;2022-08-01T10:00:38;101925.50;;;26.38;48.36
47716;BME280;33476;50.984;3.538;2022-08-01T10:03:24;101923.53;;;26.40;48.51
47716;BME280;33476;50.984;3.538;2022-08-01T10:05:49;101934.56;;;26.55;47.92
47716;BME280;33476;50.984;3.538;2022-08-01T10:08:16;101928.75;;;26.59;47.27
47716;BME280;33476;50.984;3.538;2022-08-01T10:11:09;101924.41;;;26.58;46.69
47716;BME280;33476;50.984;3.538;2022-08-01T10:13:35;101927.91;;;26.59;46.38
47716;BME280;33476;50.984;3.538;2022-08-01T10:16:01;101934.13;;;26.59;46.68
47716;BME280;33476;50.984;3.538;2022-08-01T10:18:31;101929.69;;;26.68;46.91
47716;BME280;33476;50.984;3.538;2022-08-01T10:20:57;101930.84;;;26.83;46.79
47716;BME280;33476;50.984;3.538;2022-08-01T10:23:26;101928.41;;;26.90;46.33
47716;BME280;33476;50.984;3.538;2022-08-01T10:25:53;101928.47;;;26.98;46.16
47716;BME280;33476;50.984;3.538;2022-08-01T10:28:21;101930.00;;;27.01;45.95
47716;BME280;33476;50.984;3.538;2022-08-01T10:30:47;101933.53;;;27.01;45.81
47716;BME280;33476;50.984;3.538;2022-08-01T10:33:13;101933.06;;;27.06;45.69
47716;BME280;33476;50.984;3.538;2022-08-01T10:35:40;101926.03;;;27.05;44.61
47716;BME280;33476;50.984;3.538;2022-08-01T10:38:06;101932.13;;;26.97;45.09
47716;BME280;33476;50.984;3.538;2022-08-01T10:40:32;101930.56;;;27.04;44.96
47716;BME280;33476;50.984;3.538;2022-08-01T10:42:58;101918.22;;;27.11;44.85
47716;BME280;33476;50.984;3.538;2022-08-01T10:45:24;101920.63;;;27.14;44.84
47716;BME280;33476;50.984;3.538;2022-08-01T10:48:16;101924.66;;;27.19;44.85
47716;BME280;33476;50.984;3.538;2022-08-01T10:50:52;101917.34;;;27.29;44.46
47716;BME280;33476;50.984;3.538;2022-08-01T11:01:12;101927.31;;;27.36;42.81
47716;BME280;33476;50.984;3.538;2022-08-01T11:03:38;101925.53;;;27.45;43.00
47716;BME280;33476;50.984;3.538;2022-08-01T11:06:03;101925.00;;;27.41;43.18
47716;BME280;33476;50.984;3.538;2022-08-01T11:08:30;101926.91;;;27.49;43.25
47716;BME280;33476;50.984;3.538;2022-08-01T11:11:05;101922.06;;;27.53;43.66
47716;BME280;33476;50.984;3.538;2022-08-01T11:14:01;101918.97;;;27.65;43.56
47716;BME280;33476;50.984;3.538;2022-08-01T11:16:28;101927.28;;;27.80;43.29
47716;BME280;33476;50.984;3.538;2022-08-01T11:18:54;101916.44;;;27.90;43.14
47716;BME280;33476;50.984;3.538;2022-08-01T11:21:19;101924.66;;;27.96;42.69
47716;BME280;33476;50.984;3.538;2022-08-01T11:23:50;101919.84;;;28.00;42.20
47716;BME280;33476;50.984;3.538;2022-08-01T11:26:18;101917.53;;;28.13;43.08
47716;BME280;33476;50.984;3.538;2022-08-01T11:28:46;101926.09;;;28.09;42.05
47716;BME280;33476;50.984;3.538;2022-08-01T11:31:31;101911.81;;;28.08;41.97
47716;BME280;33476;50.984;3.538;2022-08-01T11:33:57;101909.47;;;28.13;42.24
47716;BME280;33476;50.984;3.538;2022-08-01T11:36:23;101915.91;;;28.28;42.36
47716;BME280;33476;50.984;3.538;2022-08-01T11:41:27;101907.91;;;28.37;41.12
47716;BME280;33476;50.984;3.538;2022-08-01T11:46:45;101902.06;;;28.49;40.02
47716;BME280;33476;50.984;3.538;2022-08-01T11:49:42;101908.28;;;28.42;40.73
47716;BME280;33476;50.984;3.538;2022-08-01T11:54:44;101899.25;;;28.67;41.01
47716;BME280;33476;50.984;3.538;2022-08-01T11:57:17;101909.84;;;28.77;40.37
47716;BME280;33476;50.984;3.538;2022-08-01T11:59:49;101903.28;;;28.88;40.06
47716;BME280;33476;50.984;3.538;2022-08-01T12:02:23;101901.59;;;28.87;38.71
47716;BME280;33476;50.984;3.538;2022-08-01T12:04:50;101899.63;;;28.89;39.63
47716;BME280;33476;50.984;3.538;2022-08-01T12:07:16;101905.84;;;28.89;39.79
47716;BME280;33476;50.984;3.538;2022-08-01T12:09:42;101902.84;;;28.92;39.00
47716;BME280;33476;50.984;3.538;2022-08-01T12:12:08;101900.81;;;28.94;39.92
47716;BME280;33476;50.984;3.538;2022-08-01T12:14:34;101902.84;;;29.00;39.01
47716;BME280;33476;50.984;3.538;2022-08-01T12:16:59;101905.19;;;29.03;38.83
47716;BME280;33476;50.984;3.538;2022-08-01T12:19:25;101896.63;;;29.00;38.90
47716;BME280;33476;50.984;3.538;2022-08-01T12:22:07;101905.03;;;28.97;38.78
47716;BME280;33476;50.984;3.538;2022-08-01T12:24:34;101899.66;;;28.97;38.81
47716;BME280;33476;50.984;3.538;2022-08-01T12:27:00;101899.66;;;28.97;39.01
47716;BME280;33476;50.984;3.538;2022-08-01T12:29:42;101908.56;;;28.97;38.55
47716;BME280;33476;50.984;3.538;2022-08-01T12:34:51;101902.66;;;29.10;37.65
47716;BME280;33476;50.984;3.538;2022-08-01T12:37:17;101913.09;;;29.13;38.30
47716;BME280;33476;50.984;3.538;2022-08-01T12:39:44;101904.31;;;29.27;38.28
47716;BME280;33476;50.984;3.538;2022-08-01T12:42:11;101903.16;;;29.30;37.77
47716;BME280;33476;50.984;3.538;2022-08-01T12:44:38;101900.50;;;29.14;37.25
47716;BME280;33476;50.984;3.538;2022-08-01T12:47:05;101910.25;;;29.15;37.55
47716;BME280;33476;50.984;3.538;2022-08-01T12:49:33;101904.88;;;29.06;36.90
47716;BME280;33476;50.984;3.538;2022-08-01T12:52:00;101899.66;;;28.97;36.56
47716;BME280;33476;50.984;3.538;2022-08-01T12:54:25;101891.91;;;28.94;37.15
47716;BME280;33476;50.984;3.538;2022-08-01T12:56:51;101903.66;;;28.93;37.55
47716;BME280;33476;50.984;3.538;2022-08-01T12:59:24;101897.91;;;28.88;37.51
47716;BME280;33476;50.984;3.538;2022-08-01T13:01:53;101887.16;;;28.79;37.83
47716;BME280;33476;50.984;3.538;2022-08-01T13:04:21;101891.03;;;28.85;37.91
47716;BME280;33476;50.984;3.538;2022-08-01T13:06:47;101884.66;;;28.94;38.37
47716;BME280;33476;50.984;3.538;2022-08-01T13:09:13;101887.53;;;29.01;37.52
47716;BME280;33476;50.984;3.538;2022-08-01T13:11:42;101886.69;;;29.08;37.28
47716;BME280;33476;50.984;3.538;2022-08-01T13:14:08;101884.66;;;29.19;37.33
47716;BME280;33476;50.984;3.538;2022-08-01T13:16:45;101889.53;;;29.23;37.21
47716;BME280;33476;50.984;3.538;2022-08-01T13:19:10;101892.22;;;29.40;36.42
47716;BME280;33476;50.984;3.538;2022-08-01T13:21:36;101893.56;;;29.35;36.19
47716;BME280;33476;50.984;3.538;2022-08-01T13:24:12;101882.31;;;29.24;36.27